NCAR-RAP Real-Time Weather Data

Output produced by METARs form (08 May 2021  00:51 UTC)
found at http://weather.rap.ucar.edu/surface/
 
KBRO 072353Z 10009KT 10SM BKN025 BKN031 26/20 A3002 RMK AO2 SLP165 T02610200 10294 20261 56014
KBRO 072332Z 10011G17KT 10SM BKN025 27/20 A3003 RMK AO2 T02670200
KBRO 072253Z 08011KT 10SM SCT027 28/20 A3003 RMK AO2 SLP167 T02780200
KBRO 072153Z 08011KT 10SM FEW025 SCT036 28/20 A3005 RMK AO2 SLP173 T02830200
KBRO 072104Z 10010KT 10SM SCT030 SCT035 28/19 A3006 RMK AO2 T02830189
KBRO 072053Z 12009KT 10SM BKN029 28/19 A3006 RMK AO2 SLP179 T02830194 56020
KBRO 071953Z 10008KT 10SM SCT033 29/18 A3008 RMK AO2 SLP184 T02940183
KBRO 071853Z 09009KT 10SM FEW034 29/18 A3010 RMK AO2 SLP192 T02940183
KBRO 071753Z 09006KT 10SM SCT035 28/18 A3012 RMK AO2 SLP199 T02830178 10294 20172 58006
KBRO 071653Z 00000KT 10SM FEW030 28/18 A3014 RMK AO2 SLP205 T02830178
KBRO 071635Z VRB03KT 10SM SCT030 27/18 A3015 RMK AO2 T02720178
KBRO 071628Z 05007KT 360V080 10SM BKN029 28/18 A3015 RMK AO2 T02780183
KBRO 071616Z 00000KT 10SM BKN030 27/18 A3015 RMK AO2 T02720178
KBRO 071553Z 05004KT 10SM BKN026 26/18 A3015 RMK AO2 SLP208 T02610178
KBRO 071505Z 05005KT 10SM SCT022 26/18 A3014 RMK AO2 T02610183
KBRO 071453Z VRB05KT 10SM BKN022 25/18 A3014 RMK AO2 SLP205 T02500183 51012
KBRO 071445Z 12005KT 10SM FEW017 SCT022 24/18 A3014 RMK AO2 T02440178
KBRO 071436Z 04005KT 10SM FEW017 BKN022 26/19 A3014 RMK AO2 T02560189
KBRO 071353Z 00000KT 10SM CLR 23/19 A3014 RMK AO2 SLP204 T02280194
KBRO 071253Z 00000KT 10SM CLR 19/18 A3012 RMK AO2 SLP199 T01940178
KBRO 071153Z 00000KT 10SM SCT020 17/16 A3010 RMK AO2 SLP193 T01720156 10194 20156 53006
KBRO 071053Z 00000KT 10SM OVC019 17/16 A3009 RMK AO2 SLP189 T01720161
KBRO 071005Z AUTO 00000KT 10SM BKN019 17/16 A3009 RMK AO2 T01720156
KBRO 070953Z AUTO 00000KT 10SM SCT019 17/15 A3009 RMK AO2 SLP186 T01670150